Decoded Metar for KAMG (ALMA in GA, USA) (IATA:AMG) | Meteo·Mobile Aviation Weather
aviador You're here:

KAMG Decoded Metar

ALMA in GA, USA
Report Time2018-11-19 08:53:00
UTC Time2018-11-19 09:31:19
Flight Rules lifr LIFR
Wind130° at 03 kt
W.Decomp.*RWY 15: 2.9 kt HW 0.8 kt LCW
W.Rank130° ranks 11
Current wind is below 130° avg. (5.1)
Visibility1609 m
Phenomena:Mist
Clouds:N/A
Expected CloudBase > 800 ft AGL from Temp-Dew spread
Ceiling300 ft
Temp16°C (ISA +1)
Dew Point14°C (88% RH)
QNH1020 hPa
Density Alt335 ft
Elevation194 ft
Report Wrong Elevation
Raw Report
METAR KAMG 190853Z AUTO 13003KT 1SM BR VV003 16/14 A3013 RMK AO2 SLP201
T01560144 56004=

Extra information for KAMG:More info

Metar Taf Metar & Taf Last 4 Metars F.Rules Stats Wind Profile Meteogram Temp Stats Airport Information Weather charts Add Link Nearby VenuesMetar ALERT Operation Metar Decoded Social comments

AIRNAV info for KAMG